Time;durP1;ratioP1;P1;durP2;ratioP2;P2;SDS_P1;SDS_P2;PMS_P1;PMS_P2;Temp;Humidity;BMP_temperature;BMP_pressure;BME280_temperature;BME280_humidity;BME280_pressure;Samples;Min_cycle;Max_cycle;Signal;HPM_P1;HPM_P2
2023/08/11 00:01:05;;;;;;;3.90;2.17;;;18.40;99.90;;;18.76;100.00;101456.69;5201677;28;20092;-51
2023/08/11 00:03:38;;;;;;;4.25;2.20;;;18.40;99.90;;;18.72;100.00;101466.34;5202068;28;20111;-52
2023/08/11 00:06:10;;;;;;;2.38;1.90;;;18.30;99.90;;;18.70;100.00;101457.50;5202067;28;20306;-51
2023/08/11 00:08:42;;;;;;;4.80;2.15;;;18.30;99.90;;;18.67;100.00;101463.66;5201561;28;20045;-52
2023/08/11 00:11:18;;;;;;;3.35;2.00;;;18.30;99.90;;;18.62;100.00;101467.06;5193137;28;20053;-51
2023/08/11 00:13:52;;;;;;;2.83;1.92;;;18.20;99.90;;;18.57;100.00;101463.47;5193530;28;20095;-52
2023/08/11 00:16:24;;;;;;;3.05;1.92;;;18.20;99.90;;;18.54;100.00;101459.03;5201925;28;20049;-52
2023/08/11 00:18:57;;;;;;;3.30;2.05;;;18.20;99.90;;;18.52;100.00;101459.88;5201361;28;20166;-52
2023/08/11 00:21:29;;;;;;;2.50;1.83;;;18.10;99.90;;;18.48;100.00;101466.00;5201313;28;20065;-53
2023/08/11 00:24:01;;;;;;;2.83;1.88;;;18.10;99.90;;;18.43;100.00;101464.19;5201570;28;20041;-53
2023/08/11 00:26:34;;;;;;;3.03;1.85;;;18.00;99.90;;;18.40;100.00;101463.28;5201578;28;20573;-52
2023/08/11 00:29:07;;;;;;;2.80;1.73;;;18.00;99.90;;;18.33;100.00;101464.06;5201317;28;20053;-52
2023/08/11 00:31:40;;;;;;;2.95;2.20;;;17.90;99.90;;;18.28;100.00;101473.66;5201414;28;20403;-52
2023/08/11 00:34:12;;;;;;;3.35;2.03;;;17.90;99.90;;;18.24;100.00;101463.91;5201289;28;20042;-51
2023/08/11 00:36:45;;;;;;;3.65;2.10;;;17.90;99.90;;;18.18;100.00;101459.44;5201579;28;20451;-53
2023/08/11 00:39:20;;;;;;;2.03;1.70;;;17.80;99.90;;;18.16;100.00;101463.81;5200645;28;20052;-51
2023/08/11 00:41:53;;;;;;;2.28;1.75;;;17.80;99.90;;;18.14;100.00;101457.63;5200910;28;20045;-53
2023/08/11 00:44:27;;;;;;;2.55;1.77;;;17.70;99.90;;;18.11;100.00;101450.53;5201140;28;20041;-51
2023/08/11 00:47:02;;;;;;;3.05;1.98;;;17.70;99.90;;;18.07;100.00;101451.38;5201208;28;20474;-52
2023/08/11 00:49:35;;;;;;;2.67;1.98;;;17.70;99.90;;;18.03;100.00;101452.19;5200582;28;20052;-52
2023/08/11 00:52:08;;;;;;;3.10;1.92;;;17.60;99.90;;;18.00;100.00;101441.59;5200800;28;20153;-50
2023/08/11 00:54:41;;;;;;;3.47;1.95;;;17.60;99.90;;;17.99;100.00;101445.06;5201115;28;20049;-53
2023/08/11 00:57:14;;;;;;;3.30;2.03;;;17.60;99.90;;;18.00;100.00;101446.88;5200371;28;20136;-52
2023/08/11 00:59:48;;;;;;;2.90;2.00;;;17.60;99.90;;;18.01;100.00;101437.22;5200771;28;20307;-53
2023/08/11 01:02:21;;;;;;;3.60;2.15;;;17.60;99.90;;;17.97;100.00;101431.00;5191878;28;20041;-53
2023/08/11 01:04:54;;;;;;;3.45;2.10;;;17.60;99.90;;;17.95;100.00;101438.00;5193128;28;20117;-51
2023/08/11 01:07:36;;;;;;;2.78;2.03;;;17.60;99.90;;;17.93;100.00;101434.47;5199960;28;20422;-52
2023/08/11 01:10:18;;;;;;;4.78;2.28;;;17.60;99.90;;;17.88;100.00;101431.75;5200967;28;20129;-52
2023/08/11 01:13:07;;;;;;;3.97;2.35;;;17.50;99.90;;;17.88;100.00;101430.88;5200766;28;20515;-54
2023/08/11 01:15:46;;;;;;;3.08;1.92;;;17.50;99.90;;;17.87;100.00;101429.09;5196559;28;20041;-53
2023/08/11 01:18:20;;;;;;;2.33;1.83;;;17.50;99.90;;;17.85;100.00;101433.44;5200254;28;20041;-52
2023/08/11 01:20:57;;;;;;;3.15;2.10;;;17.50;99.90;;;17.82;100.00;101436.03;5200225;28;20502;-52
2023/08/11 01:23:31;;;;;;;3.17;2.13;;;17.40;99.90;;;17.80;100.00;101427.19;5200389;28;20111;-53
2023/08/11 01:26:05;;;;;;;2.97;2.10;;;17.40;99.90;;;17.76;100.00;101430.69;5200358;28;20060;-51
2023/08/11 01:28:37;;;;;;;3.72;2.13;;;17.40;99.90;;;17.71;100.00;101427.97;5200481;28;20057;-50
2023/08/11 01:31:12;;;;;;;3.05;2.05;;;17.40;99.90;;;17.69;100.00;101428.78;5200129;28;20060;-53
2023/08/11 01:33:45;;;;;;;2.78;1.73;;;17.30;99.90;;;17.64;100.00;101426.06;5200739;28;20037;-51
2023/08/11 01:36:17;;;;;;;2.40;2.03;;;17.30;99.90;;;17.60;100.00;101421.59;5200073;28;20057;-52
2023/08/11 01:38:51;;;;;;;2.38;2.00;;;17.20;99.90;;;17.58;100.00;101426.84;5200137;28;20064;-54
2023/08/11 01:41:25;;;;;;;3.72;2.17;;;17.20;99.90;;;17.56;100.00;101418.03;5192184;28;20566;-52
2023/08/11 01:43:57;;;;;;;2.65;1.83;;;17.20;99.90;;;17.55;100.00;101420.66;5191989;28;20052;-51
2023/08/11 01:46:31;;;;;;;1.98;1.52;;;17.20;99.90;;;17.52;100.00;101416.19;5200285;28;20068;-51
2023/08/11 01:49:04;;;;;;;2.58;2.03;;;17.10;99.90;;;17.49;100.00;101423.19;5200019;28;20046;-51
2023/08/11 01:51:36;;;;;;;3.03;1.77;;;17.10;99.90;;;17.48;100.00;101414.38;5200176;28;20045;-53
2023/08/11 01:54:10;;;;;;;2.88;2.03;;;17.10;99.90;;;17.50;100.00;101411.78;5199853;28;20540;-51
2023/08/11 01:56:44;;;;;;;3.33;1.70;;;17.10;99.90;;;17.48;100.00;101409.13;5199959;28;20046;-52
2023/08/11 01:59:20;;;;;;;4.25;1.90;;;17.10;99.90;;;17.45;100.00;101408.16;5199483;28;20053;-52
2023/08/11 02:01:54;;;;;;;2.55;1.80;;;17.10;99.90;;;17.42;100.00;101397.59;5200476;28;20065;-53
2023/08/11 02:04:28;;;;;;;2.38;1.63;;;17.00;99.90;;;17.38;100.00;101401.91;5192429;28;20065;-53
2023/08/11 02:07:00;;;;;;;2.40;1.92;;;17.00;99.90;;;17.36;100.00;101401.00;5193220;28;20045;-50
2023/08/11 02:09:34;;;;;;;2.42;1.80;;;17.00;99.90;;;17.34;100.00;101398.34;5202385;28;20668;-52
2023/08/11 02:12:08;;;;;;;3.30;2.00;;;17.00;99.90;;;17.33;100.00;101400.94;5204040;28;20049;-51
2023/08/11 02:14:41;;;;;;;2.38;1.50;;;17.00;99.90;;;17.32;100.00;101393.91;5204279;28;20037;-54
2023/08/11 02:17:16;;;;;;;2.45;1.88;;;17.00;99.90;;;17.29;100.00;101399.13;5205549;28;20068;-53
2023/08/11 02:19:49;;;;;;;2.80;1.60;;;16.90;99.90;;;17.24;100.00;101400.78;5203605;28;20045;-53
2023/08/11 02:22:21;;;;;;;2.55;1.73;;;16.90;99.90;;;17.22;100.00;101405.16;5195590;28;20045;-52
2023/08/11 02:24:55;;;;;;;2.15;1.48;;;16.90;99.90;;;17.20;100.00;101401.59;5203760;28;20128;-54
2023/08/11 02:27:27;;;;;;;3.10;1.77;;;16.80;99.90;;;17.17;100.00;101397.16;5204032;28;20049;-54
2023/08/11 02:30:04;;;;;;;2.53;1.98;;;16.80;99.90;;;17.16;100.00;101400.66;5203295;28;20088;-52
2023/08/11 02:32:37;;;;;;;2.95;1.80;;;16.80;99.90;;;17.17;100.00;101401.56;5203787;28;20061;-52
2023/08/11 02:35:10;;;;;;;2.58;1.65;;;16.80;99.90;;;17.18;100.00;101392.78;5195754;28;20565;-51
2023/08/11 02:37:43;;;;;;;1.90;1.60;;;16.80;99.90;;;17.19;100.00;101395.44;5203953;28;20092;-52
2023/08/11 02:40:19;;;;;;;3.13;1.85;;;16.80;99.90;;;17.21;100.00;101396.34;5202882;28;20141;-52
2023/08/11 02:42:56;;;;;;;3.30;1.73;;;16.80;99.90;;;17.22;100.00;101399.91;5203151;28;20052;-52
2023/08/11 02:45:28;;;;;;;2.30;1.80;;;16.90;99.90;;;17.21;100.00;101398.97;5203719;28;20132;-53
2023/08/11 02:48:01;;;;;;;3.13;2.03;;;16.90;99.90;;;17.18;100.00;101395.41;5202902;28;20144;-52
2023/08/11 02:50:35;;;;;;;2.50;1.80;;;16.80;99.90;;;17.15;100.00;101392.72;5195264;28;20545;-53
2023/08/11 02:53:07;;;;;;;2.20;1.80;;;16.80;99.90;;;17.09;100.00;101380.34;5203080;28;20432;-53
2023/08/11 02:55:41;;;;;;;2.75;1.90;;;16.80;99.90;;;17.05;100.00;101386.41;5203682;28;20053;-53
2023/08/11 02:58:13;;;;;;;2.33;1.80;;;16.70;99.90;;;17.00;100.00;101394.22;5194929;28;20073;-52
2023/08/11 03:00:47;;;;;;;2.38;1.65;;;16.70;99.90;;;16.97;100.00;101394.19;5203029;28;20063;-52
2023/08/11 03:03:22;;;;;;;2.08;1.63;;;16.60;99.90;;;16.95;100.00;101392.38;5203074;28;20045;-53
2023/08/11 03:05:55;;;;;;;1.75;1.63;;;16.60;99.90;;;16.90;100.00;101386.16;5203325;28;20041;-51
2023/08/11 03:08:28;;;;;;;3.60;2.00;;;16.50;99.90;;;16.87;100.00;101391.34;5202742;28;20123;-53
2023/08/11 03:11:03;;;;;;;3.20;1.63;;;16.50;99.90;;;16.85;100.00;101396.59;5202657;28;20045;-55
2023/08/11 03:13:40;;;;;;;2.95;1.73;;;16.50;99.90;;;16.81;100.00;101392.09;5202910;28;20128;-52
2023/08/11 03:16:13;;;;;;;2.75;1.83;;;16.50;99.90;;;16.78;100.00;101392.06;5202584;28;20430;-53
2023/08/11 03:18:46;;;;;;;3.88;1.92;;;16.50;99.90;;;16.74;100.00;101387.59;5202620;28;20088;-53
2023/08/11 03:21:21;;;;;;;3.40;1.92;;;16.40;99.90;;;16.72;100.00;101391.94;5202894;28;20049;-53
2023/08/11 03:23:55;;;;;;;3.28;2.10;;;16.40;99.90;;;16.69;100.00;101389.22;5202720;28;20041;-52
2023/08/11 03:26:29;;;;;;;2.88;1.90;;;16.40;99.90;;;16.65;100.00;101395.28;5202812;28;20064;-53
2023/08/11 03:29:02;;;;;;;2.20;1.48;;;16.30;99.90;;;16.62;100.00;101392.59;5202453;28;20045;-52
2023/08/11 03:31:37;;;;;;;3.05;1.83;;;16.30;99.90;;;16.58;100.00;101394.28;5202583;28;20115;-52
2023/08/11 03:34:10;;;;;;;2.70;1.80;;;16.20;99.90;;;16.55;100.00;101389.81;5194582;28;20701;-52
2023/08/11 03:36:43;;;;;;;2.10;1.60;;;16.20;99.90;;;16.53;100.00;101388.91;5202831;28;20056;-52
2023/08/11 03:39:16;;;;;;;3.30;1.92;;;16.20;99.90;;;16.51;100.00;101388.00;5202030;28;20150;-50
2023/08/11 03:41:52;;;;;;;2.55;1.85;;;16.20;99.90;;;16.49;100.00;101394.97;5202430;28;20049;-52
2023/08/11 03:44:24;;;;;;;2.30;1.60;;;16.20;99.90;;;16.48;100.00;101393.19;5202251;28;20584;-54
2023/08/11 03:46:58;;;;;;;2.60;1.83;;;16.20;99.90;;;16.50;100.00;101393.25;5202431;28;20052;-51
2023/08/11 03:49:31;;;;;;;2.30;1.70;;;16.20;99.90;;;16.50;100.00;101394.13;5201802;28;20490;-52
2023/08/11 03:52:04;;;;;;;3.13;1.95;;;16.10;99.90;;;16.49;100.00;101392.34;5201757;28;20095;-53
2023/08/11 03:54:36;;;;;;;2.05;1.85;;;16.20;99.90;;;16.49;100.00;101402.88;5194610;28;20411;-53
2023/08/11 03:57:10;;;;;;;3.22;1.92;;;16.10;99.90;;;16.47;100.00;101407.22;5202084;28;20057;-54
2023/08/11 03:59:44;;;;;;;3.00;1.92;;;16.10;99.90;;;16.45;100.00;101400.16;5201971;28;20041;-52
2023/08/11 04:02:17;;;;;;;2.63;1.85;;;16.10;99.90;;;16.43;100.00;101405.41;5201638;28;20099;-52
2023/08/11 04:04:50;;;;;;;2.90;2.00;;;16.10;99.90;;;16.40;100.00;101399.16;5202196;28;20041;-53
2023/08/11 04:07:22;;;;;;;3.88;1.90;;;16.10;99.90;;;16.38;100.00;101401.78;5201677;28;20095;-52
2023/08/11 04:09:58;;;;;;;2.75;1.83;;;16.00;99.90;;;16.37;100.00;101410.53;5201751;28;20452;-53
2023/08/11 04:12:32;;;;;;;2.75;1.80;;;16.00;99.90;;;16.36;100.00;101407.84;5201363;28;20046;-52
2023/08/11 04:15:06;;;;;;;4.18;2.15;;;16.10;99.90;;;16.36;100.00;101408.72;5194020;28;20529;-51
2023/08/11 04:17:39;;;;;;;2.47;1.85;;;16.00;99.90;;;16.36;100.00;101398.22;5194720;28;20052;-50
2023/08/11 04:20:12;;;;;;;2.40;1.95;;;16.00;99.90;;;16.35;100.00;101401.69;5185270;28;20042;-50
2023/08/11 04:22:46;;;;;;;2.50;1.95;;;16.00;99.90;;;16.37;100.00;101404.38;5189698;28;20073;-50
2023/08/11 04:25:18;;;;;;;4.65;2.05;;;16.00;99.90;;;16.39;100.00;101403.53;5182023;28;20042;-50
2023/08/11 04:27:55;;;;;;;4.10;1.90;;;16.00;99.90;;;16.42;100.00;101407.97;5188270;28;20045;-49
2023/08/11 04:30:29;;;;;;;2.78;1.90;;;16.10;99.90;;;16.41;100.00;101399.19;5201616;28;20061;-50
2023/08/11 04:33:03;;;;;;;2.45;1.75;;;16.10;99.90;;;16.41;100.00;101406.19;5201816;28;20044;-50
2023/08/11 04:35:42;;;;;;;3.25;1.90;;;16.10;99.90;;;16.40;100.00;101405.31;5197404;28;20093;-50
2023/08/11 04:38:14;;;;;;;2.78;2.00;;;16.10;99.90;;;16.42;100.00;101410.59;5198421;28;20101;-51
2023/08/11 04:40:51;;;;;;;2.88;1.98;;;16.10;99.90;;;16.43;100.00;101405.41;5202059;28;20045;-50
2023/08/11 04:43:29;;;;;;;4.32;1.92;;;16.10;99.90;;;16.45;100.00;101406.31;5191380;28;20049;-51
2023/08/11 04:46:02;;;;;;;3.42;2.03;;;16.10;99.90;;;16.46;100.00;101405.44;5196992;28;20049;-51
2023/08/11 04:48:35;;;;;;;3.50;1.80;;;16.10;99.90;;;16.46;100.00;101402.81;5193312;28;20087;-51
2023/08/11 04:51:08;;;;;;;2.30;1.80;;;16.20;99.90;;;16.50;100.00;101409.94;5193336;28;20057;-51
2023/08/11 04:53:43;;;;;;;2.85;1.77;;;16.20;99.90;;;16.54;100.00;101406.47;5197212;28;20495;-50
2023/08/11 04:56:16;;;;;;;2.83;1.70;;;16.20;99.90;;;16.60;100.00;101407.47;5190514;28;20045;-50
2023/08/11 04:58:50;;;;;;;2.35;1.88;;;16.30;99.90;;;16.66;100.00;101412.84;5201625;28;20045;-50
2023/08/11 05:01:22;;;;;;;2.58;1.67;;;16.30;99.90;;;16.73;100.00;101410.41;5192996;28;20058;-51
2023/08/11 05:03:54;;;;;;;2.60;1.23;;;16.40;99.90;;;16.79;100.00;101407.00;5201246;28;20056;-50
2023/08/11 05:06:27;;;;;;;2.80;1.65;;;16.50;99.90;;;16.85;100.00;101415.03;5185115;28;20052;-51
2023/08/11 05:08:59;;;;;;;2.40;1.70;;;16.50;99.90;;;16.91;100.00;101415.13;5194409;28;20042;-51
2023/08/11 05:11:32;;;;;;;3.78;1.83;;;16.60;99.90;;;16.95;100.00;101413.44;5184185;28;20045;-51
2023/08/11 05:14:06;;;;;;;3.05;1.80;;;16.60;99.90;;;16.99;100.00;101424.06;5193107;28;20044;-51
2023/08/11 05:16:38;;;;;;;3.17;1.90;;;16.70;99.90;;;17.05;100.00;101418.91;5192854;28;20033;-50
2023/08/11 05:19:12;;;;;;;4.20;1.80;;;16.70;99.90;;;17.15;100.00;101419.06;5192892;28;20049;-50
2023/08/11 05:21:45;;;;;;;2.80;1.67;;;16.80;99.90;;;17.29;100.00;101422.84;5192853;28;20562;-51
2023/08/11 05:24:17;;;;;;;2.80;1.60;;;16.90;99.90;;;17.48;100.00;101414.38;5200084;28;20042;-51
2023/08/11 05:26:50;;;;;;;3.17;1.90;;;17.00;99.90;;;17.75;100.00;101413.09;5180678;28;20056;-50
2023/08/11 05:29:23;;;;;;;3.08;1.90;;;17.30;99.90;;;18.04;100.00;101411.75;5196815;28;20073;-50
2023/08/11 05:31:59;;;;;;;2.20;1.83;;;17.60;99.90;;;18.35;100.00;101423.59;5195294;28;20076;-51
2023/08/11 05:34:31;;;;;;;5.47;1.80;;;17.80;99.90;;;18.64;100.00;101413.38;5182260;28;20049;-49
2023/08/11 05:37:04;;;;;;;4.20;1.67;;;18.10;99.90;;;18.97;100.00;101427.88;5187723;28;20084;-50
2023/08/11 05:39:39;;;;;;;4.57;1.73;;;18.40;99.90;;;19.25;100.00;101424.66;5200525;28;20414;-50
2023/08/11 05:42:11;;;;;;;3.83;1.92;;;18.70;99.90;;;19.54;100.00;101434.56;5184814;28;20107;-50
2023/08/11 05:44:45;;;;;;;3.50;1.85;;;18.90;99.90;;;19.85;100.00;101430.44;5188666;28;20038;-52
2023/08/11 05:47:17;;;;;;;5.38;2.10;;;19.20;99.90;;;20.17;100.00;101429.75;5188669;28;20507;-50
2023/08/11 05:49:51;;;;;;;3.20;1.90;;;19.50;99.90;;;20.47;100.00;101426.38;5185506;28;20529;-50
2023/08/11 05:52:23;;;;;;;4.05;1.63;;;19.80;99.90;;;20.74;100.00;101431.81;5184350;28;20049;-50
2023/08/11 05:54:56;;;;;;;5.10;1.95;;;20.00;99.90;;;20.93;100.00;101439.78;5200671;28;20503;-51
2023/08/11 05:57:28;;;;;;;3.67;1.60;;;20.20;99.90;;;21.09;100.00;101433.66;5186337;28;20576;-50
2023/08/11 06:00:03;;;;;;;5.25;2.20;;;20.40;99.90;;;21.26;100.00;101431.91;5194329;28;20574;-51
2023/08/11 06:02:45;;;;;;;3.63;1.70;;;20.60;99.90;;;21.38;99.64;101434.59;5196675;28;20460;-50
2023/08/11 06:05:21;;;;;;;4.30;2.13;;;20.70;99.90;;;21.54;98.76;101437.25;5195313;28;20084;-50
2023/08/11 06:07:54;;;;;;;3.67;1.90;;;20.80;99.90;;;21.74;97.19;101424.84;5197819;28;20123;-50
2023/08/11 06:10:26;;;;;;;5.18;2.10;;;21.10;99.90;;;21.92;96.84;101424.84;5190790;28;20057;-51
2023/08/11 06:12:59;;;;;;;3.72;1.80;;;21.20;99.90;;;22.11;95.54;101419.53;5192376;28;20044;-50
2023/08/11 06:15:33;;;;;;;3.20;1.70;;;21.40;99.90;;;22.24;94.88;101417.72;5190682;28;20037;-51
2023/08/11 06:18:05;;;;;;;4.38;2.10;;;21.60;99.90;;;22.37;93.94;101427.41;5193143;28;20057;-50
2023/08/11 06:20:37;;;;;;;3.60;1.90;;;21.70;99.90;;;22.57;93.19;101425.53;5195315;28;20488;-49
2023/08/11 06:23:11;;;;;;;3.67;1.90;;;21.90;99.90;;;22.68;92.41;101425.47;5192581;28;20510;-50
2023/08/11 06:25:44;;;;;;;2.63;1.65;;;22.00;99.90;;;22.73;92.23;101429.88;5191283;28;20048;-50
2023/08/11 06:28:17;;;;;;;4.97;1.95;;;22.10;99.90;;;22.90;92.03;101423.63;5193209;28;20053;-49
2023/08/11 06:30:51;;;;;;;4.82;1.77;;;22.20;99.90;;;23.09;91.00;101427.06;5192887;28;20450;-49
2023/08/11 06:33:23;;;;;;;3.05;1.58;;;22.40;99.90;;;23.20;89.96;101422.53;5189600;28;20068;-49
2023/08/11 06:35:56;;;;;;;4.00;1.75;;;22.50;99.60;;;23.43;89.38;101409.94;5198553;28;20132;-50
2023/08/11 06:38:30;;;;;;;4.40;1.60;;;22.70;99.40;;;23.64;88.34;101413.34;5194337;28;20399;-48
2023/08/11 06:41:03;;;;;;;4.25;1.90;;;22.90;98.90;;;23.63;87.60;101415.13;5198443;28;20144;-50
2023/08/11 06:43:36;;;;;;;1.90;1.35;;;22.90;98.50;;;23.51;87.86;101418.72;5192762;28;20052;-49
2023/08/11 06:46:10;;;;;;;4.07;1.58;;;22.90;98.30;;;23.54;87.82;101418.72;5186080;28;20061;-49
2023/08/11 06:48:42;;;;;;;3.33;1.73;;;22.90;98.20;;;23.54;87.58;101416.06;5190240;28;20411;-49
2023/08/11 06:51:14;;;;;;;4.45;1.80;;;22.90;98.00;;;23.58;87.50;101418.69;5188538;28;20128;-49
2023/08/11 06:53:50;;;;;;;4.40;1.73;;;23.00;98.00;;;23.67;87.43;101419.53;5197756;28;20041;-49
2023/08/11 06:56:22;;;;;;;4.15;2.00;;;23.00;97.90;;;23.81;86.80;101424.72;5201631;28;20562;-50
2023/08/11 06:58:54;;;;;;;2.85;1.63;;;23.10;97.70;;;24.02;86.20;101421.81;5202394;28;20049;-49
2023/08/11 07:01:28;;;;;;;4.13;1.70;;;23.20;97.40;;;24.25;85.36;101420.66;5191796;28;20046;-51
2023/08/11 07:04:01;;;;;;;2.90;1.58;;;23.50;97.10;;;24.20;84.74;101414.53;5192260;28;20115;-51
2023/08/11 07:06:33;;;;;;;5.32;1.80;;;23.50;96.60;;;24.09;84.62;101423.53;5191474;28;20041;-52
2023/08/11 07:09:06;;;;;;;3.78;1.80;;;23.50;96.50;;;24.07;85.02;101424.44;5203804;28;20156;-50
2023/08/11 07:11:40;;;;;;;;;;;23.40;96.50;;;24.10;85.46;101419.94;5179991;28;20057;-51
2023/08/11 07:14:12;;;;;;;3.53;1.52;;;23.40;96.70;;;24.22;85.94;101428.72;5188113;28;19922;-52
2023/08/11 07:16:46;;;;;;;3.45;1.42;;;23.50;96.90;;;24.23;85.30;101422.47;5191579;28;20419;-51
2023/08/11 07:19:18;;;;;;;2.72;1.63;;;23.50;96.60;;;24.30;85.05;101421.50;5191626;28;20038;-51
2023/08/11 07:21:51;;;;;;;3.35;1.63;;;23.50;96.60;;;24.35;84.13;101419.72;5190973;28;20408;-51
2023/08/11 07:24:23;;;;;;;3.47;1.52;;;23.60;96.20;;;24.27;84.23;101426.88;5208774;22;20099;-69
2023/08/11 07:26:55;;;;;;;3.05;1.42;;;23.60;96.10;;;24.31;84.73;101424.16;5206110;28;20045;-67
2023/08/11 07:29:27;;;;;;;4.38;1.65;;;23.70;96.30;;;24.27;84.20;101424.22;5205379;28;20049;-67
2023/08/11 07:32:01;;;;;;;3.33;1.55;;;23.60;95.90;;;24.34;84.19;101423.28;5205869;28;20049;-67
2023/08/11 07:34:33;;;;;;;2.40;1.58;;;23.70;95.80;;;24.44;84.81;101424.91;5189433;28;20046;-67
2023/08/11 07:37:05;;;;;;;4.85;2.03;;;23.70;96.00;;;24.46;83.79;101420.47;5181535;28;20050;-68
2023/08/11 07:39:37;;;;;;;3.50;1.80;;;23.70;95.70;;;24.61;84.22;101425.59;5183828;28;20042;-69
2023/08/11 07:42:10;;;;;;;3.35;1.83;;;23.80;95.80;;;24.83;84.42;101422.63;5181818;28;20439;-64
2023/08/11 07:44:43;;;;;;;5.57;1.77;;;24.00;95.90;;;25.00;83.59;101419.72;5182874;28;20143;-69
2023/08/11 07:47:19;;;;;;;3.20;1.60;;;24.10;95.70;;;25.11;83.48;101418.69;5179782;28;20424;-70
2023/08/11 07:49:51;;;;;;;3.08;1.70;;;24.20;95.50;;;25.29;82.50;101416.63;5181969;28;20050;-65
2023/08/11 07:52:23;;;;;;;5.25;1.70;;;24.30;95.10;;;25.51;81.99;101417.16;5182999;28;20650;-61
2023/08/11 07:54:55;;;;;;;4.07;1.67;;;24.50;95.00;;;25.61;81.41;101413.41;5185779;28;20034;-62
2023/08/11 07:57:28;;;;;;;4.00;1.70;;;24.60;94.70;;;25.80;80.85;101414.00;5167152;28;20053;-64
2023/08/11 08:00:00;;;;;;;2.05;1.55;;;24.80;94.80;;;26.07;80.12;101413.47;5167769;28;20046;-64
2023/08/11 08:02:33;;;;;;;3.92;1.65;;;24.90;94.20;;;26.19;78.63;101417.69;5184936;28;20050;-63
2023/08/11 08:05:06;;;;;;;3.97;1.52;;;25.10;93.50;;;26.46;78.28;101419.81;5184912;28;20045;-62
2023/08/11 08:07:38;;;;;;;4.28;1.90;;;25.30;93.30;;;26.64;77.31;101421.22;5183956;28;20454;-63
2023/08/11 08:10:13;;;;;;;2.60;1.52;;;25.40;92.70;;;27.06;76.58;101418.53;5184964;28;20046;-64
2023/08/11 08:12:46;;;;;;;3.28;1.80;;;25.60;92.60;;;27.47;76.06;101419.31;5184691;28;20041;-64
2023/08/11 08:15:19;;;;;;;3.17;1.60;;;25.90;92.80;;;27.99;74.41;101417.97;5184983;28;20084;-62
2023/08/11 08:17:52;;;;;;;2.38;1.50;;;26.20;92.00;;;28.48;72.68;101427.31;5184530;28;20038;-63
2023/08/11 08:20:24;;;;;;;2.58;1.60;;;26.50;91.30;;;28.80;71.42;101429.03;5183269;28;20455;-64
2023/08/11 08:22:56;;;;;;;3.78;1.67;;;26.70;90.70;;;29.39;71.05;101421.75;5184619;28;20556;-63
2023/08/11 08:25:29;;;;;;;2.03;1.42;;;27.10;90.80;;;29.91;69.32;101422.66;5184517;28;20042;-64
2023/08/11 08:28:01;;;;;;;2.33;1.60;;;27.30;90.00;;;30.69;67.86;101422.50;5184374;28;20046;-63
2023/08/11 08:30:33;;;;;;;2.42;1.45;;;27.70;89.70;;;31.50;66.15;101412.97;5183989;28;20120;-64
2023/08/11 08:33:07;;;;;;;2.45;1.60;;;28.20;88.50;;;32.05;64.00;101427.63;5184453;28;20050;-63
2023/08/11 08:35:39;;;;;;;2.30;1.58;;;28.60;86.10;;;32.95;62.17;101427.97;5184372;28;20049;-63
2023/08/11 08:38:11;;;;;;;2.03;1.40;;;29.10;84.30;;;33.82;59.92;101425.41;5184307;28;20053;-64
2023/08/11 08:40:44;;;;;;;2.40;1.50;;;29.80;81.90;;;34.57;56.36;101426.84;5184361;28;20052;-64
2023/08/11 08:43:17;;;;;;;2.65;1.70;;;30.50;78.10;;;35.54;54.46;101426.63;5184235;28;20054;-63
2023/08/11 08:45:52;;;;;;;2.00;1.38;;;31.50;75.70;;;36.50;52.62;101430.66;5184307;28;20034;-62
2023/08/11 08:48:41;;;;;;;3.85;1.63;;;32.40;73.00;;;37.36;49.96;101431.34;5182875;28;20046;-63
2023/08/11 08:51:14;;;;;;;1.95;1.50;;;33.20;69.10;;;37.85;48.13;101428.03;5178393;28;20443;-63
2023/08/11 08:53:46;;;;;;;3.80;1.75;;;33.80;66.10;;;38.35;47.85;101420.00;5183892;28;20096;-64
2023/08/11 08:56:18;;;;;;;3.13;1.40;;;34.30;65.10;;;38.89;46.28;101428.72;5184155;28;20042;-65
2023/08/11 08:58:51;;;;;;;4.43;1.83;;;34.70;63.00;;;39.45;44.78;101428.13;5183683;28;20054;-62
2023/08/11 09:01:24;;;;;;;3.83;1.80;;;35.20;60.90;;;39.90;43.48;101426.44;5183758;28;20038;-64
2023/08/11 09:03:57;;;;;;;3.10;1.63;;;35.60;59.40;;;39.85;43.42;101420.50;5184128;28;20053;-64
2023/08/11 09:06:30;;;;;;;3.72;1.90;;;35.70;57.80;;;38.93;43.40;101422.06;5183983;28;20042;-65
2023/08/11 09:09:03;;;;;;;3.38;1.60;;;35.30;56.70;;;38.31;44.95;101424.78;5183995;28;20124;-63
2023/08/11 09:11:38;;;;;;;3.47;1.63;;;34.90;57.90;;;38.62;45.23;101425.28;5183185;28;20432;-63
2023/08/11 09:14:10;;;;;;;2.05;1.40;;;34.90;58.60;;;38.69;45.20;101418.41;5182331;28;20056;-63
2023/08/11 09:16:43;;;;;;;2.90;1.50;;;35.00;58.30;;;38.68;45.16;101416.66;5183361;28;20420;-63
2023/08/11 09:19:17;;;;;;;3.00;1.50;;;35.00;58.20;;;37.92;45.06;101418.44;5182338;28;20045;-63
2023/08/11 09:21:49;;;;;;;2.33;1.60;;;34.80;57.60;;;37.42;46.38;101409.19;5182609;28;20052;-64
2023/08/11 09:24:22;;;;;;;2.47;1.45;;;34.50;58.00;;;37.02;47.26;101410.13;5184267;28;20049;-65
2023/08/11 09:26:55;;;;;;;3.30;1.80;;;34.40;58.60;;;36.26;47.32;101411.38;5183607;28;20518;-64
2023/08/11 09:29:28;;;;;;;4.05;2.00;;;34.00;57.70;;;35.48;48.56;101413.44;5183203;28;20115;-63
2023/08/11 09:32:03;;;;;;;3.45;1.80;;;33.70;58.60;;;34.62;49.95;101412.06;5175937;28;20038;-63
2023/08/11 09:34:39;;;;;;;2.22;1.50;;;33.10;59.10;;;33.89;51.66;101400.66;5183252;28;20050;-63
2023/08/11 09:37:11;;;;;;;2.22;1.80;;;32.70;60.20;;;33.25;53.29;101408.50;5183792;28;20054;-64
2023/08/11 09:39:44;;;;;;;5.00;1.77;;;32.10;61.30;;;32.72;54.09;101406.56;5181818;28;20503;-64
2023/08/11 09:42:16;;;;;;;3.47;1.73;;;31.70;62.00;;;32.43;56.20;101399.88;5182897;28;20099;-65
2023/08/11 09:44:53;;;;;;;2.60;1.63;;;31.40;63.90;;;32.11;55.83;101394.13;5178818;28;20400;-64
2023/08/11 09:47:25;;;;;;;5.68;2.22;;;31.10;63.60;;;31.85;56.49;101397.97;5183455;28;20104;-63
2023/08/11 09:49:59;;;;;;;11.95;3.63;;;30.80;64.20;;;31.84;58.38;101390.84;5181727;28;20432;-64
2023/08/11 09:52:34;;;;;;;7.85;3.20;;;30.80;66.00;;;31.89;58.67;101386.13;5180070;28;20556;-64
2023/08/11 09:55:09;;;;;;;7.15;2.60;;;30.70;66.40;;;31.89;56.87;101386.13;5183463;28;20045;-64
2023/08/11 09:57:42;;;;;;;3.90;1.80;;;30.70;65.30;;;31.80;56.12;101382.00;5174945;28;20049;-64
2023/08/11 10:00:15;;;;;;;4.53;1.83;;;30.60;64.50;;;31.59;56.46;101381.09;5176038;28;20526;-63
2023/08/11 10:02:56;;;;;;;4.95;1.70;;;30.50;64.70;;;31.24;56.81;101376.38;5181336;28;20053;-69
2023/08/11 10:05:32;;;;;;;2.85;1.73;;;30.30;64.70;;;31.31;58.78;101384.13;5181869;28;20046;-69
2023/08/11 10:08:06;;;;;;;3.22;1.90;;;30.30;66.50;;;31.34;58.65;101373.19;5180593;28;20050;-69
2023/08/11 10:10:40;;;;;;;3.17;1.80;;;30.30;66.50;;;31.42;57.64;101375.56;5165257;28;20081;-73
2023/08/11 10:13:17;;;;;;;2.88;1.73;;;30.30;65.80;;;31.54;57.60;101369.66;5183222;28;20049;-71
2023/08/11 10:15:51;;;;;;;3.35;1.83;;;30.40;65.80;;;31.69;57.66;101360.03;5183009;28;20100;-70
2023/08/11 10:18:24;;;;;;;2.75;1.52;;;30.60;66.20;;;31.80;58.36;101362.25;5181634;28;20056;-70
2023/08/11 10:20:59;;;;;;;3.90;1.90;;;30.60;66.80;;;31.75;56.15;101351.63;5181332;28;20107;-70
2023/08/11 10:23:33;;;;;;;3.92;2.03;;;30.60;64.50;;;31.61;55.55;101357.66;5182762;28;20136;-72
2023/08/11 10:26:05;;;;;;;;;;;30.60;64.00;;;31.46;55.90;101347.56;5175710;28;20050;-70
2023/08/11 10:28:38;;;;;;;4.18;1.88;;;30.50;64.20;;;31.44;55.90;101346.75;5181210;28;19928;-61
2023/08/11 10:31:10;;;;;;;2.78;1.80;;;30.40;64.10;;;31.47;57.51;101352.00;5186475;28;20054;-60
2023/08/11 10:33:49;;;;;;;4.15;1.70;;;30.40;65.60;;;31.44;58.55;101346.75;5186722;28;20053;-60
2023/08/11 10:36:24;;;;;;;2.30;1.48;;;30.40;66.70;;;31.57;58.09;101347.97;5184726;28;20053;-63